Time;durP1;ratioP1;P1;durP2;ratioP2;P2;SDS_P1;SDS_P2;PMS_P1;PMS_P2;Temp;Humidity;BMP_temperature;BMP_pressure;BME280_temperature;BME280_humidity;BME280_pressure;Samples;Min_cycle;Max_cycle;Signal;HPM_P1;HPM_P2
2021/06/12 00:00:13;;;;;;;5.30;3.28;;;19.80;60.70;;;;;;4961250;28;20043;-79
2021/06/12 00:02:38;;;;;;;5.95;3.90;;;19.80;61.60;;;;;;4960794;28;20038;-79
2021/06/12 00:05:10;;;;;;;6.72;3.97;;;19.80;62.50;;;;;;4960880;28;20027;-79
2021/06/12 00:07:36;;;;;;;5.18;3.08;;;19.80;61.80;;;;;;4960486;28;20394;-78
2021/06/12 00:10:06;;;;;;;6.22;3.50;;;19.80;60.70;;;;;;4960598;28;20027;-78
2021/06/12 00:12:32;;;;;;;7.28;3.70;;;19.80;61.50;;;;;;4954078;28;20419;-78
2021/06/12 00:14:58;;;;;;;6.43;4.47;;;19.80;61.20;;;;;;4941628;29;20032;-78
2021/06/12 00:17:23;;;;;;;8.82;4.50;;;19.70;64.50;;;;;;4941083;29;20031;-78
2021/06/12 00:19:49;;;;;;;6.80;4.25;;;19.70;61.70;;;;;;4941408;29;20043;-78
2021/06/12 00:22:15;;;;;;;7.82;4.65;;;19.70;61.20;;;;;;4941324;29;20067;-78
2021/06/12 00:24:41;;;;;;;7.65;4.40;;;19.70;63.30;;;;;;4941378;29;20487;-78
2021/06/12 00:27:07;;;;;;;7.55;4.20;;;19.70;64.40;;;;;;4941139;29;20034;-78
2021/06/12 00:29:33;;;;;;;6.70;3.92;;;19.70;62.90;;;;;;4938974;29;20035;-78
2021/06/12 00:31:59;;;;;;;6.30;4.25;;;19.70;62.10;;;;;;4941106;29;20031;-78
2021/06/12 00:34:25;;;;;;;5.68;3.70;;;19.60;61.50;;;;;;4941036;29;20036;-78
2021/06/12 00:36:52;;;;;;;6.88;4.10;;;19.70;62.10;;;;;;4941012;29;20032;-78
2021/06/12 00:39:18;;;;;;;6.18;3.80;;;19.70;61.30;;;;;;4953224;29;20023;-78
2021/06/12 00:41:44;;;;;;;6.22;3.90;;;19.60;63.20;;;;;;4959900;28;20560;-78
2021/06/12 00:44:10;;;;;;;7.72;4.35;;;19.60;62.80;;;;;;4960205;28;20027;-77
2021/06/12 00:46:36;;;;;;;7.80;4.80;;;19.60;61.70;;;;;;4958755;29;20042;-77
2021/06/12 00:49:02;;;;;;;7.22;4.60;;;19.60;62.00;;;;;;4959647;28;20458;-77
2021/06/12 00:51:28;;;;;;;7.43;4.60;;;19.60;62.00;;;;;;4959931;28;20042;-77
2021/06/12 00:53:54;;;;;;;7.20;4.78;;;19.60;62.00;;;;;;4959858;28;20023;-77
2021/06/12 00:56:20;;;;;;;8.05;4.82;;;19.60;61.50;;;;;;4958695;29;20033;-78
2021/06/12 00:58:49;;;;;;;9.18;4.65;;;19.60;61.20;;;;;;4959784;28;20517;-78
2021/06/12 01:01:19;;;;;;;7.68;4.75;;;19.60;63.40;;;;;;4959847;28;20030;-77
2021/06/12 01:03:46;;;;;;;9.13;4.97;;;19.50;62.20;;;;;;4959647;28;20023;-77
2021/06/12 01:06:13;;;;;;;7.50;5.05;;;19.50;61.60;;;;;;4959999;28;20031;-78
2021/06/12 01:08:41;;;;;;;8.30;5.05;;;19.50;61.80;;;;;;4959422;28;20110;-77
2021/06/12 01:11:08;;;;;;;8.20;4.65;;;19.50;61.30;;;;;;4958756;28;20094;-78
2021/06/12 01:13:49;;;;;;;9.18;5.55;;;19.50;61.10;;;;;;4945369;28;20024;-78
2021/06/12 01:16:52;;;;;;;8.60;5.53;;;19.50;61.40;;;;;;4940423;29;20052;-78
2021/06/12 01:19:54;;;;;;;7.78;4.97;;;19.50;61.90;;;;;;4940430;29;20032;-78
2021/06/12 01:22:27;;;;;;;9.27;5.55;;;19.50;62.80;;;;;;4940527;29;20052;-77
2021/06/12 01:24:55;;;;;;;;;;;19.50;62.70;;;;;;4940557;29;20075;-77
2021/06/12 01:28:04;;;;;;;7.80;5.20;;;19.50;62.90;;;;;;4940268;29;19914;-77
2021/06/12 01:30:32;;;;;;;7.63;4.88;;;19.50;62.40;;;;;;4940366;29;20431;-77
2021/06/12 01:33:02;;;;;;;6.75;4.40;;;19.40;62.80;;;;;;4940139;29;20043;-77
2021/06/12 01:35:37;;;;;;;7.93;4.82;;;19.50;61.60;;;;;;4940222;29;20023;-77
2021/06/12 01:38:06;;;;;;;8.05;4.93;;;19.40;62.60;;;;;;4942811;29;20095;-78
2021/06/12 01:40:35;;;;;;;7.72;4.28;;;19.40;63.80;;;;;;4959836;28;20050;-78
2021/06/12 01:43:03;;;;;;;7.65;4.28;;;19.40;63.00;;;;;;4965538;28;20082;-78
2021/06/12 01:45:30;;;;;;;6.82;4.57;;;19.40;62.80;;;;;;4965758;29;20069;-78
2021/06/12 01:47:56;;;;;;;7.28;4.75;;;19.30;64.00;;;;;;4965295;28;20501;-77
2021/06/12 01:50:24;;;;;;;8.25;4.88;;;19.30;63.70;;;;;;4965828;28;20023;-77
2021/06/12 01:52:52;;;;;;;8.50;5.07;;;19.20;63.80;;;;;;4965477;28;20381;-77
2021/06/12 01:55:21;;;;;;;6.95;4.43;;;19.20;63.50;;;;;;4965706;28;20383;-78
2021/06/12 01:57:47;;;;;;;7.35;4.57;;;19.20;63.20;;;;;;4965394;28;20031;-78
2021/06/12 02:00:14;;;;;;;6.63;4.30;;;19.20;62.80;;;;;;4965805;28;20062;-78
2021/06/12 02:02:41;;;;;;;7.57;4.88;;;19.20;63.10;;;;;;4965213;28;20126;-77
2021/06/12 02:05:12;;;;;;;7.00;4.35;;;19.10;63.20;;;;;;4965670;28;20050;-76
2021/06/12 02:07:39;;;;;;;7.63;4.63;;;19.10;62.50;;;;;;4965200;28;20029;-75
2021/06/12 02:10:07;;;;;;;6.65;4.10;;;19.10;62.60;;;;;;4963870;29;20430;-75
2021/06/12 02:12:35;;;;;;;6.15;3.13;;;19.10;63.60;;;;;;4945017;29;20024;-76
2021/06/12 02:15:04;;;;;;;4.57;2.75;;;19.10;63.80;;;;;;4946142;29;20024;-76
2021/06/12 02:17:34;;;;;;;5.25;2.50;;;19.10;65.20;;;;;;4944546;29;20372;-76
2021/06/12 02:20:01;;;;;;;4.20;2.20;;;19.10;63.50;;;;;;4946094;29;20038;-76
2021/06/12 02:22:28;;;;;;;4.32;2.63;;;19.00;62.90;;;;;;4946233;29;20034;-76
2021/06/12 02:24:55;;;;;;;4.05;2.28;;;19.00;63.00;;;;;;4944613;29;20090;-76
2021/06/12 02:27:21;;;;;;;3.70;2.03;;;19.00;63.10;;;;;;4946085;29;20020;-76
2021/06/12 02:29:50;;;;;;;4.68;2.30;;;19.00;63.00;;;;;;4945824;29;20063;-76
2021/06/12 02:32:19;;;;;;;4.68;1.70;;;18.90;62.90;;;;;;4945976;29;20039;-76
2021/06/12 02:34:44;;;;;;;6.45;2.15;;;18.90;62.00;;;;;;4945931;29;20501;-76
2021/06/12 02:37:10;;;;;;;3.42;2.17;;;18.90;62.20;;;;;;4945983;29;20031;-76
2021/06/12 02:39:36;;;;;;;3.38;2.05;;;18.90;63.20;;;;;;4960609;28;20027;-76
2021/06/12 02:42:03;;;;;;;3.58;1.90;;;18.90;62.30;;;;;;4965044;28;20402;-76
2021/06/12 02:44:29;;;;;;;3.55;1.88;;;18.90;62.40;;;;;;4964975;28;20502;-78
2021/06/12 02:47:03;;;;;;;4.55;2.00;;;18.90;62.50;;;;;;4963520;28;20023;-78
2021/06/12 02:49:33;;;;;;;3.78;1.90;;;18.90;62.60;;;;;;4964967;28;20031;-78
2021/06/12 02:52:01;;;;;;;3.28;1.80;;;18.90;63.70;;;;;;4964756;28;20413;-77
2021/06/12 02:54:30;;;;;;;4.55;2.20;;;18.80;62.80;;;;;;4960088;29;20027;-77
2021/06/12 02:56:56;;;;;;;4.13;1.80;;;18.80;62.40;;;;;;4962166;28;20012;-78
2021/06/12 02:59:23;;;;;;;4.20;2.10;;;18.80;62.20;;;;;;4961846;28;20106;-78
2021/06/12 03:01:50;;;;;;;2.97;1.48;;;18.80;62.40;;;;;;4961847;28;20105;-77
2021/06/12 03:04:18;;;;;;;3.10;1.73;;;18.80;62.70;;;;;;4961766;28;20073;-77
2021/06/12 03:06:46;;;;;;;3.55;1.50;;;18.80;62.60;;;;;;4960584;29;20034;-77
2021/06/12 03:09:14;;;;;;;2.85;1.30;;;18.80;62.70;;;;;;4961431;28;20024;-77
2021/06/12 03:11:41;;;;;;;3.58;1.63;;;18.80;63.20;;;;;;4961799;28;20024;-77
2021/06/12 03:14:10;;;;;;;3.72;1.70;;;18.80;63.20;;;;;;4941623;29;20027;-77
2021/06/12 03:16:40;;;;;;;3.33;1.60;;;18.70;63.50;;;;;;4942498;29;20067;-77
2021/06/12 03:19:06;;;;;;;3.70;1.85;;;18.70;63.40;;;;;;4942282;29;20078;-77
2021/06/12 03:21:33;;;;;;;3.72;1.98;;;18.70;63.30;;;;;;4942344;29;20026;-77
2021/06/12 03:24:00;;;;;;;4.15;2.22;;;18.70;63.40;;;;;;4942470;29;20028;-77
2021/06/12 03:26:26;;;;;;;4.38;2.35;;;18.70;63.60;;;;;;4942275;29;20020;-77
2021/06/12 03:28:53;;;;;;;4.25;2.25;;;18.60;66.10;;;;;;4942219;29;20038;-77
2021/06/12 03:31:19;;;;;;;3.83;2.15;;;18.60;64.30;;;;;;4942161;29;20020;-77
2021/06/12 03:33:46;;;;;;;3.40;1.90;;;18.60;64.10;;;;;;4942100;29;20027;-77
2021/06/12 03:36:12;;;;;;;3.95;2.10;;;18.60;63.70;;;;;;4942012;29;20111;-77
2021/06/12 03:38:39;;;;;;;3.97;2.30;;;18.60;63.70;;;;;;4949181;29;20027;-76
2021/06/12 03:41:06;;;;;;;3.75;2.38;;;18.50;64.80;;;;;;4961112;28;20059;-76
2021/06/12 03:43:34;;;;;;;3.50;2.10;;;18.60;65.50;;;;;;4961290;28;20042;-75
2021/06/12 03:46:02;;;;;;;2.97;1.50;;;18.60;65.30;;;;;;4961110;28;20494;-76
2021/06/12 03:48:28;;;;;;;2.67;1.40;;;18.50;66.10;;;;;;4959521;29;20035;-76
2021/06/12 03:50:55;;;;;;;2.78;1.50;;;18.50;64.50;;;;;;4959701;29;20030;-76
2021/06/12 03:53:22;;;;;;;2.92;1.42;;;18.50;64.20;;;;;;4961086;28;20031;-76
2021/06/12 03:55:49;;;;;;;2.75;1.60;;;18.40;65.30;;;;;;4960740;28;20402;-76
2021/06/12 03:58:19;;;;;;;2.58;1.23;;;18.40;64.20;;;;;;4960903;28;20027;-75
2021/06/12 04:00:45;;;;;;;2.20;1.13;;;18.40;65.30;;;;;;4960982;28;20024;-76
2021/06/12 04:03:11;;;;;;;2.90;1.20;;;18.40;64.80;;;;;;4960727;28;20032;-76
2021/06/12 04:05:37;;;;;;;2.50;1.30;;;18.40;65.40;;;;;;4959847;28;20034;-76
2021/06/12 04:08:02;;;;;;;2.97;1.42;;;18.30;64.90;;;;;;4960623;28;20082;-76
2021/06/12 04:10:28;;;;;;;3.25;1.10;;;18.30;64.30;;;;;;4960517;28;20023;-76
2021/06/12 04:12:54;;;;;;;2.90;1.10;;;18.30;63.70;;;;;;4950123;29;20028;-76
2021/06/12 04:15:20;;;;;;;2.28;1.10;;;18.30;65.70;;;;;;4941325;29;20020;-76
2021/06/12 04:17:46;;;;;;;2.25;1.08;;;18.30;64.00;;;;;;4941383;29;20463;-76
2021/06/12 04:20:13;;;;;;;2.33;1.25;;;18.30;66.00;;;;;;4941237;29;20627;-76
2021/06/12 04:22:40;;;;;;;2.60;1.30;;;18.30;65.30;;;;;;4941308;29;20028;-76
2021/06/12 04:25:06;;;;;;;3.05;1.38;;;18.20;64.70;;;;;;4941050;29;20030;-76
2021/06/12 04:27:33;;;;;;;2.72;1.50;;;18.20;66.90;;;;;;4941203;29;20103;-76
2021/06/12 04:29:59;;;;;;;3.10;1.23;;;18.20;65.70;;;;;;4940926;29;20027;-76
2021/06/12 04:32:25;;;;;;;2.67;1.10;;;18.20;66.20;;;;;;4940918;29;20039;-76
2021/06/12 04:34:51;;;;;;;2.90;1.45;;;18.20;65.00;;;;;;4941001;29;20024;-76
2021/06/12 04:37:17;;;;;;;2.78;1.40;;;18.20;66.90;;;;;;4941192;29;20071;-76
2021/06/12 04:39:43;;;;;;;4.20;1.75;;;18.20;65.50;;;;;;4954957;28;20274;-76
2021/06/12 04:42:09;;;;;;;2.95;1.52;;;18.20;65.40;;;;;;4960185;28;20039;-78
2021/06/12 04:44:35;;;;;;;4.93;2.45;;;18.30;66.60;;;;;;4959973;28;20032;-76
2021/06/12 04:47:02;;;;;;;2.80;1.45;;;18.20;65.40;;;;;;4959765;28;20027;-75
2021/06/12 04:49:28;;;;;;;2.78;1.30;;;18.20;66.10;;;;;;4960111;28;20027;-75
2021/06/12 04:51:53;;;;;;;3.13;1.30;;;18.20;65.70;;;;;;4959974;28;20054;-75
2021/06/12 04:54:19;;;;;;;3.80;1.60;;;18.20;66.00;;;;;;4959807;28;20031;-75
2021/06/12 04:56:45;;;;;;;4.53;1.70;;;18.20;65.40;;;;;;4959882;28;20058;-76
2021/06/12 04:59:11;;;;;;;3.00;1.40;;;18.30;67.50;;;;;;4959732;28;20019;-76
2021/06/12 05:01:37;;;;;;;2.58;1.30;;;18.20;66.10;;;;;;4959842;28;20027;-76
2021/06/12 05:04:03;;;;;;;3.95;1.60;;;18.20;67.20;;;;;;4959772;28;20030;-75
2021/06/12 05:06:29;;;;;;;2.90;1.30;;;18.20;66.30;;;;;;4959754;28;20027;-77
2021/06/12 05:08:54;;;;;;;3.83;1.40;;;18.20;66.00;;;;;;4959248;29;20023;-77
2021/06/12 05:11:20;;;;;;;3.03;1.52;;;18.20;65.80;;;;;;4959565;28;20051;-77
2021/06/12 05:13:46;;;;;;;4.32;1.42;;;18.20;66.10;;;;;;4943435;29;20024;-76
2021/06/12 05:16:12;;;;;;;3.53;1.42;;;18.20;66.80;;;;;;4940235;29;20039;-77
2021/06/12 05:18:43;;;;;;;2.95;1.33;;;18.20;66.40;;;;;;4940167;29;20056;-76
2021/06/12 05:21:09;;;;;;;3.00;1.35;;;18.20;66.30;;;;;;4940449;29;20032;-76
2021/06/12 05:23:35;;;;;;;3.08;1.40;;;18.10;65.60;;;;;;4940148;29;20482;-76
2021/06/12 05:26:05;;;;;;;3.40;1.70;;;18.10;66.00;;;;;;4940469;29;20028;-76
2021/06/12 05:28:31;;;;;;;3.63;1.67;;;18.10;66.10;;;;;;4940146;29;20043;-76
2021/06/12 05:30:57;;;;;;;4.00;1.70;;;18.20;66.80;;;;;;4938984;29;20542;-76
2021/06/12 05:33:24;;;;;;;3.17;1.50;;;18.20;67.30;;;;;;4939917;29;20048;-76
2021/06/12 05:35:50;;;;;;;3.00;1.40;;;18.20;68.50;;;;;;4940310;29;20023;-76
2021/06/12 05:38:17;;;;;;;2.83;1.30;;;18.20;66.90;;;;;;4944264;29;20023;-76
2021/06/12 05:40:43;;;;;;;2.70;1.30;;;18.10;66.30;;;;;;4959385;28;20055;-76
2021/06/12 05:43:09;;;;;;;3.42;1.52;;;18.10;67.40;;;;;;4957919;29;20023;-76
2021/06/12 05:45:35;;;;;;;4.00;1.80;;;18.10;66.40;;;;;;4959526;28;20474;-75
2021/06/12 05:48:01;;;;;;;3.70;1.80;;;18.10;66.90;;;;;;4958854;28;20023;-76
2021/06/12 05:50:27;;;;;;;3.38;1.50;;;18.10;66.80;;;;;;4959190;28;20063;-76
2021/06/12 05:52:53;;;;;;;5.50;2.15;;;18.20;67.00;;;;;;4959178;28;20445;-76
2021/06/12 05:55:18;;;;;;;3.83;1.77;;;18.10;66.70;;;;;;4959162;28;20051;-76
2021/06/12 05:57:44;;;;;;;5.22;2.10;;;18.10;68.80;;;;;;4959147;29;20102;-77
2021/06/12 06:00:11;;;;;;;4.50;2.10;;;18.20;67.00;;;;;;4959452;28;20434;-77
2021/06/12 06:02:37;;;;;;;3.60;1.85;;;18.20;67.00;;;;;;4958973;28;20031;-77
2021/06/12 06:05:03;;;;;;;3.30;1.70;;;18.20;66.70;;;;;;4959175;28;20078;-76
2021/06/12 06:07:28;;;;;;;3.17;1.40;;;18.20;66.60;;;;;;4958799;28;20055;-75
2021/06/12 06:09:54;;;;;;;3.20;1.27;;;18.30;67.40;;;;;;4958922;29;20390;-75
2021/06/12 06:12:20;;;;;;;2.15;1.00;;;18.30;67.00;;;;;;4953767;28;20390;-75
2021/06/12 06:14:46;;;;;;;2.75;1.10;;;18.30;68.20;;;;;;4939886;29;20050;-75
2021/06/12 06:17:11;;;;;;;2.63;1.33;;;18.20;67.60;;;;;;4938191;29;20020;-75
2021/06/12 06:19:37;;;;;;;1.70;0.80;;;18.30;68.80;;;;;;4939807;29;20089;-76
2021/06/12 06:22:03;;;;;;;2.67;1.10;;;18.30;68.00;;;;;;4939704;29;20024;-75
2021/06/12 06:24:29;;;;;;;3.60;1.48;;;18.20;67.50;;;;;;4939996;29;20034;-75
2021/06/12 06:26:55;;;;;;;2.45;0.93;;;18.30;68.00;;;;;;4939598;29;20390;-76
2021/06/12 06:29:21;;;;;;;2.45;1.00;;;18.30;67.00;;;;;;4942652;29;20042;-76
2021/06/12 06:31:46;;;;;;;2.08;0.95;;;18.30;67.10;;;;;;4942985;29;20020;-76
2021/06/12 06:34:12;;;;;;;2.10;1.02;;;18.30;67.90;;;;;;4943486;29;20039;-75
2021/06/12 06:36:39;;;;;;;2.60;1.15;;;18.30;67.60;;;;;;4943231;29;20024;-78
2021/06/12 06:39:05;;;;;;;2.00;1.00;;;18.40;67.50;;;;;;4953883;29;20130;-76
2021/06/12 06:41:31;;;;;;;2.78;1.30;;;18.40;67.60;;;;;;4962126;29;20079;-76
2021/06/12 06:43:57;;;;;;;2.55;1.13;;;18.40;68.00;;;;;;4962333;28;20110;-75
2021/06/12 06:46:23;;;;;;;4.45;1.25;;;18.50;67.80;;;;;;4962130;28;20023;-74
2021/06/12 06:48:49;;;;;;;4.00;1.30;;;18.50;68.00;;;;;;4961834;28;20158;-75
2021/06/12 06:51:15;;;;;;;2.95;1.02;;;18.50;68.20;;;;;;4962069;28;20501;-71
2021/06/12 06:53:41;;;;;;;2.95;1.20;;;18.50;69.20;;;;;;4962007;28;20051;-77
2021/06/12 06:56:07;;;;;;;3.35;1.00;;;18.50;68.10;;;;;;4961869;28;20075;-75
2021/06/12 06:58:34;;;;;;;2.60;1.10;;;18.50;68.20;;;;;;4961701;28;20497;-78
2021/06/12 07:01:00;;;;;;;2.72;1.10;;;18.50;68.10;;;;;;4962075;28;20023;-70
2021/06/12 07:03:26;;;;;;;3.92;1.10;;;18.60;68.40;;;;;;4961800;28;20038;-72
2021/06/12 07:05:53;;;;;;;2.35;1.02;;;18.60;68.40;;;;;;4961758;28;20032;-71
2021/06/12 07:08:19;;;;;;;2.33;1.08;;;18.60;68.00;;;;;;4961794;28;20394;-75
2021/06/12 07:10:45;;;;;;;3.00;1.10;;;18.60;68.50;;;;;;4960793;28;20031;-75
2021/06/12 07:13:11;;;;;;;3.20;1.25;;;18.70;68.60;;;;;;4949098;29;20035;-78
2021/06/12 07:15:37;;;;;;;4.15;1.33;;;18.70;68.00;;;;;;4942276;29;20051;-73
2021/06/12 07:18:03;;;;;;;3.90;1.50;;;18.80;69.60;;;;;;4942334;29;20036;-76
2021/06/12 07:20:28;;;;;;;4.18;1.10;;;18.80;68.40;;;;;;4942269;29;20038;-77
2021/06/12 07:22:55;;;;;;;2.60;1.00;;;18.80;69.20;;;;;;4942368;29;20486;-74
2021/06/12 07:25:21;;;;;;;23.70;15.05;;;18.80;68.40;;;;;;4942208;29;20039;-74
2021/06/12 07:27:47;;;;;;;8.07;4.40;;;18.80;68.50;;;;;;4942423;29;20818;-75
2021/06/12 07:30:13;;;;;;;4.68;2.20;;;18.80;69.70;;;;;;4942204;29;20083;-75
2021/06/12 07:32:39;;;;;;;2.80;1.23;;;18.80;69.00;;;;;;4942070;29;20020;-75
2021/06/12 07:35:05;;;;;;;4.13;1.50;;;18.80;68.20;;;;;;4942160;29;20024;-73
2021/06/12 07:37:31;;;;;;;8.80;5.80;;;18.80;69.00;;;;;;4941961;29;20403;-74
2021/06/12 07:39:57;;;;;;;19.23;9.40;;;18.90;68.00;;;;;;4958963;28;20027;-74
2021/06/12 07:42:23;;;;;;;8.18;3.83;;;19.00;68.20;;;;;;4961354;28;20039;-75
2021/06/12 07:44:49;;;;;;;4.68;1.70;;;19.10;68.00;;;;;;4961054;28;20019;-75
2021/06/12 07:47:15;;;;;;;2.97;1.40;;;19.10;68.20;;;;;;4953650;28;20035;-74
2021/06/12 07:49:40;;;;;;;2.33;1.30;;;19.20;67.90;;;;;;4959541;28;20635;-75
2021/06/12 07:52:07;;;;;;;2.75;1.30;;;19.20;67.70;;;;;;4961179;28;20386;-76
2021/06/12 07:54:32;;;;;;;2.00;1.13;;;19.30;67.50;;;;;;4960649;28;20015;-75
2021/06/12 07:56:58;;;;;;;3.70;1.50;;;19.30;67.80;;;;;;4960982;28;20027;-73
2021/06/12 07:59:24;;;;;;;4.40;1.70;;;19.30;67.50;;;;;;4960760;29;20049;-71
2021/06/12 08:01:50;;;;;;;3.60;1.77;;;19.40;67.20;;;;;;4960834;28;20031;-73
2021/06/12 08:04:16;;;;;;;4.70;2.10;;;19.40;66.90;;;;;;4960663;28;20471;-71
2021/06/12 08:06:41;;;;;;;3.28;1.67;;;19.40;67.60;;;;;;4960753;28;20031;-72
2021/06/12 08:09:07;;;;;;;3.88;2.22;;;19.40;67.40;;;;;;4960187;28;20023;-73
2021/06/12 08:11:33;;;;;;;4.78;2.60;;;19.50;67.60;;;;;;4960761;28;20027;-73
2021/06/12 08:14:00;;;;;;;5.00;2.33;;;19.50;67.30;;;;;;4942689;28;20020;-73
2021/06/12 08:16:26;;;;;;;5.10;2.50;;;19.60;67.90;;;;;;4941644;29;20390;-73
2021/06/12 08:18:52;;;;;;;5.40;2.25;;;19.60;67.90;;;;;;4941300;29;20027;-73
2021/06/12 08:21:18;;;;;;;5.13;2.67;;;19.60;68.00;;;;;;4941454;29;20031;-73
2021/06/12 08:23:43;;;;;;;4.60;2.95;;;19.60;67.20;;;;;;4941042;29;20055;-74
2021/06/12 08:26:09;;;;;;;3.95;2.40;;;19.70;67.10;;;;;;4941422;29;20024;-75
2021/06/12 08:28:35;;;;;;;5.65;3.53;;;19.70;67.30;;;;;;4941145;29;20098;-77
2021/06/12 08:31:04;;;;;;;5.40;2.83;;;19.80;67.70;;;;;;4945253;29;20063;-79
2021/06/12 08:33:30;;;;;;;4.75;2.97;;;19.80;67.20;;;;;;4947954;28;20031;-77
2021/06/12 08:35:56;;;;;;;5.38;2.95;;;19.80;67.00;;;;;;4947577;28;20028;-77
2021/06/12 08:38:22;;;;;;;4.20;2.88;;;19.90;67.90;;;;;;4945901;29;20047;-79
2021/06/12 08:40:49;;;;;;;5.18;3.00;;;19.90;67.30;;;;;;4960024;28;20070;-78
2021/06/12 08:43:27;;;;;;;6.82;4.20;;;20.00;67.30;;;;;;4960067;28;20023;-77
2021/06/12 08:45:55;;;;;;;6.90;2.80;;;20.00;67.10;;;;;;4958702;29;20034;-70
2021/06/12 08:48:22;;;;;;;5.13;3.05;;;20.00;67.10;;;;;;4959674;28;20079;-76
2021/06/12 08:50:49;;;;;;;8.98;5.78;;;20.10;67.40;;;;;;4959337;28;20352;-76
2021/06/12 08:53:15;;;;;;;17.92;12.75;;;20.20;67.00;;;;;;4960008;28;20030;-76
2021/06/12 08:55:42;;;;;;;14.45;11.35;;;20.20;66.80;;;;;;4959705;28;20023;-76
2021/06/12 08:58:09;;;;;;;7.35;4.38;;;20.30;67.00;;;;;;4958890;28;20042;-77
2021/06/12 09:00:35;;;;;;;7.50;3.35;;;20.40;67.00;;;;;;4944519;28;20059;-77
2021/06/12 09:03:24;;;;;;;6.82;3.30;;;20.40;66.70;;;;;;4956199;28;20031;-80
2021/06/12 09:06:01;;;;;;;5.32;2.95;;;20.50;66.70;;;;;;4958650;28;20032;-77
2021/06/12 09:08:29;;;;;;;5.70;3.22;;;20.60;66.60;;;;;;4957251;28;20031;-74
2021/06/12 09:11:05;;;;;;;5.43;3.20;;;20.70;66.60;;;;;;4956979;28;20098;-78
2021/06/12 09:13:52;;;;;;;5.63;3.50;;;20.80;66.60;;;;;;4944852;29;20089;-75
2021/06/12 09:16:37;;;;;;;17.60;12.20;;;20.80;66.20;;;;;;4947642;29;20102;-74
2021/06/12 09:19:09;;;;;;;18.23;12.57;;;20.80;66.10;;;;;;4939373;29;20038;-78
2021/06/12 09:21:40;;;;;;;9.40;4.83;;;20.80;65.90;;;;;;4943349;29;20439;-80
2021/06/12 09:24:26;;;;;;;5.20;3.38;;;20.80;66.30;;;;;;4951658;29;20290;-79
2021/06/12 09:26:53;;;;;;;5.75;3.00;;;20.80;65.80;;;;;;4944151;28;20043;-79
2021/06/12 09:29:20;;;;;;;5.93;3.40;;;20.90;65.70;;;;;;4948086;29;20422;-78
2021/06/12 09:31:49;;;;;;;4.70;2.80;;;21.00;66.00;;;;;;4953973;28;20452;-79
2021/06/12 09:34:20;;;;;;;5.43;3.50;;;21.10;66.10;;;;;;4956829;29;20433;-79
2021/06/12 09:36:47;;;;;;;6.53;3.22;;;21.30;65.10;;;;;;4958234;28;20027;-79
2021/06/12 09:39:18;;;;;;;4.90;2.97;;;21.40;65.20;;;;;;4955943;29;20580;-79
2021/06/12 09:41:52;;;;;;;5.53;3.20;;;21.50;65.50;;;;;;4958393;28;20130;-78
2021/06/12 09:44:46;;;;;;;4.45;2.95;;;21.60;65.50;;;;;;4952952;29;20054;-78
2021/06/12 09:47:11;;;;;;;5.63;2.92;;;21.70;65.70;;;;;;4958281;29;20067;-79
2021/06/12 09:49:39;;;;;;;4.85;3.00;;;21.90;65.40;;;;;;4946044;29;20055;-78
2021/06/12 09:52:11;;;;;;;4.00;2.78;;;22.20;66.20;;;;;;4957498;29;20078;-78
2021/06/12 09:54:44;;;;;;;5.93;2.55;;;22.70;65.20;;;;;;4958007;28;20046;-77
2021/06/12 09:57:13;;;;;;;4.57;2.60;;;23.50;66.50;;;;;;4958653;28;20066;-77
2021/06/12 09:59:51;;;;;;;4.53;2.63;;;24.20;65.70;;;;;;4954946;28;20046;-78
2021/06/12 10:02:44;;;;;;;5.30;3.08;;;24.80;63.00;;;;;;4951814;28;20028;-79
2021/06/12 10:05:12;;;;;;;4.82;2.45;;;25.10;61.20;;;;;;4960844;29;20501;-79
2021/06/12 10:07:38;;;;;;;6.85;2.58;;;25.70;63.30;;;;;;4961412;29;20083;-79
2021/06/12 10:10:11;;;;;;;4.75;3.00;;;26.40;60.70;;;;;;4961375;28;20035;-79
2021/06/12 10:12:37;;;;;;;10.82;3.63;;;26.90;62.10;;;;;;4951366;29;20050;-81
2021/06/12 10:15:08;;;;;;;113.13;15.55;;;27.30;61.40;;;;;;4961170;28;20016;-80
2021/06/12 10:17:46;;;;;;;5.82;2.83;;;27.80;61.60;;;;;;4962377;28;20034;-80
2021/06/12 10:20:13;;;;;;;3.67;1.92;;;28.60;61.00;;;;;;4962042;28;20418;-79
2021/06/12 10:22:46;;;;;;;3.58;1.80;;;29.60;57.80;;;;;;4962761;28;20042;-80
2021/06/12 10:25:16;;;;;;;3.47;1.80;;;30.40;55.30;;;;;;4961607;28;20031;-80
2021/06/12 10:27:43;;;;;;;4.45;1.90;;;31.10;56.90;;;;;;4952118;29;20035;-79
2021/06/12 10:30:12;;;;;;;4.47;1.80;;;31.60;55.10;;;;;;4961687;29;20031;-81
2021/06/12 10:32:47;;;;;;;3.53;1.90;;;31.80;53.90;;;;;;4961469;28;20035;-79
2021/06/12 10:35:28;;;;;;;4.22;2.55;;;31.80;52.40;;;;;;4949948;29;20311;-84
2021/06/12 10:38:08;;;;;;;3.67;1.98;;;31.80;52.60;;;;;;4955555;29;20035;-82
2021/06/12 10:40:56;;;;;;;4.60;1.83;;;32.10;52.40;;;;;;4956873;29;20605;-83
2021/06/12 10:43:26;;;;;;;3.00;1.83;;;32.70;50.90;;;;;;4962358;28;20034;-82
2021/06/12 10:46:47;;;;;;;4.13;1.90;;;33.20;51.30;;;;;;4958332;29;20502;-84
2021/06/12 10:49:31;;;;;;;3.08;1.70;;;33.80;49.30;;;;;;4950747;29;20040;-83
2021/06/12 10:51:58;;;;;;;3.33;1.90;;;34.30;48.80;;;;;;4958570;28;20078;-82
2021/06/12 10:54:28;;;;;;;2.80;1.60;;;34.50;49.60;;;;;;4961404;28;20026;-83
2021/06/12 10:57:03;;;;;;;3.33;1.60;;;34.80;49.00;;;;;;4960600;28;20039;-82
2021/06/12 10:59:48;;;;;;;3.85;1.48;;;34.90;49.50;;;;;;4961234;28;20034;-83
2021/06/12 11:05:28;;;;;;;2.67;1.33;;;35.20;48.20;;;;;;4952513;28;20071;-82
2021/06/12 11:08:14;;;;;;;2.45;1.40;;;35.30;47.90;;;;;;4961697;28;20050;-82
2021/06/12 11:10:40;;;;;;;2.65;1.20;;;35.40;47.10;;;;;;4960982;28;20026;-82
2021/06/12 11:13:21;;;;;;;2.88;1.25;;;35.50;47.60;;;;;;4961371;28;20026;-82
2021/06/12 11:15:47;;;;;;;3.40;1.80;;;35.60;44.90;;;;;;4959852;29;20058;-83
2021/06/12 11:18:22;;;;;;;4.15;1.50;;;35.50;46.40;;;;;;4961276;29;20023;-82
2021/06/12 11:21:00;;;;;;;2.33;1.00;;;35.30;46.10;;;;;;4948636;29;20056;-82
2021/06/12 11:23:45;;;;;;;2.50;1.20;;;35.30;45.90;;;;;;4951366;29;20031;-82
2021/06/12 11:26:12;;;;;;;4.28;2.50;;;35.40;47.50;;;;;;4959748;29;20026;-82
2021/06/12 11:28:40;;;;;;;3.67;1.42;;;35.30;43.70;;;;;;4961211;28;20027;-82
2021/06/12 11:31:25;;;;;;;2.00;0.95;;;35.30;44.50;;;;;;4961100;28;20368;-81
2021/06/12 11:34:20;;;;;;;2.63;1.00;;;35.00;43.70;;;;;;4956719;28;20036;-82
2021/06/12 11:36:49;;;;;;;10.98;5.60;;;34.30;45.00;;;;;;4960873;28;20012;-82
2021/06/12 11:39:15;;;;;;;5.38;3.70;;;33.60;44.80;;;;;;4952753;29;20031;-82
2021/06/12 11:41:41;;;;;;;2.05;1.10;;;33.40;46.20;;;;;;4959404;29;20162;-82
2021/06/12 11:44:08;;;;;;;4.03;1.65;;;33.20;46.20;;;;;;4961071;28;20510;-83
2021/06/12 11:46:43;;;;;;;3.83;1.67;;;33.00;47.00;;;;;;4960509;28;20027;-82
2021/06/12 11:49:12;;;;;;;4.72;1.58;;;33.00;47.30;;;;;;4960143;29;20494;-83
2021/06/12 11:51:41;;;;;;;2.97;1.38;;;33.00;47.40;;;;;;4960907;28;20081;-82
2021/06/12 11:54:21;;;;;;;4.22;2.00;;;32.80;47.00;;;;;;4959917;28;20085;-82
2021/06/12 11:57:00;;;;;;;4.07;1.95;;;32.70;47.60;;;;;;4960341;28;20509;-83
2021/06/12 11:59:31;;;;;;;4.20;3.05;;;32.60;47.40;;;;;;4953159;29;20506;-83
2021/06/12 12:02:05;;;;;;;4.70;2.10;;;32.40;47.30;;;;;;4959740;28;20110;-84
2021/06/12 12:04:42;;;;;;;3.13;1.35;;;32.10;47.80;;;;;;4959549;28;20035;-83
2021/06/12 12:07:12;;;;;;;2.67;1.10;;;31.80;47.80;;;;;;4960203;28;20042;-83
2021/06/12 12:09:44;;;;;;;1.83;1.00;;;31.50;48.20;;;;;;4960344;28;20114;-83
2021/06/12 12:12:18;;;;;;;2.95;1.10;;;31.30;49.20;;;;;;4959722;29;20158;-81
2021/06/12 12:14:46;;;;;;;2.40;1.20;;;31.10;46.70;;;;;;4959795;28;20857;-80
2021/06/12 12:17:27;;;;;;;2.03;1.10;;;30.90;48.50;;;;;;4959276;28;20024;-82
2021/06/12 12:20:09;;;;;;;1.60;1.00;;;30.70;49.20;;;;;;4960187;28;20042;-83
2021/06/12 12:22:41;;;;;;;3.97;1.20;;;30.60;47.40;;;;;;4959396;28;20446;-81
2021/06/12 12:25:08;;;;;;;;;;;30.50;48.70;;;;;;4959506;28;20027;-80
2021/06/12 12:27:33;;;;;;;2.60;1.50;;;30.40;49.60;;;;;;4959601;28;19911;-83
2021/06/12 12:29:59;;;;;;;3.25;1.27;;;30.30;48.10;;;;;;4959108;29;20023;-81
2021/06/12 12:32:25;;;;;;;2.90;1.40;;;30.20;48.80;;;;;;4959194;28;20464;-77
2021/06/12 12:34:51;;;;;;;5.03;3.00;;;30.10;48.00;;;;;;4956656;28;20050;-78
2021/06/12 12:37:24;;;;;;;3.60;1.80;;;30.00;48.70;;;;;;4959568;29;20038;-78
2021/06/12 12:39:52;;;;;;;4.78;2.67;;;29.90;49.10;;;;;;4957862;28;20035;-78
2021/06/12 12:42:21;;;;;;;8.75;5.65;;;29.70;48.60;;;;;;4960165;28;20023;-78
2021/06/12 12:44:49;;;;;;;4.22;2.00;;;29.70;49.30;;;;;;4958580;28;20035;-78
2021/06/12 12:47:23;;;;;;;4.15;1.85;;;29.50;49.30;;;;;;4951654;29;20066;-78
2021/06/12 12:49:49;;;;;;;5.85;1.92;;;29.40;49.90;;;;;;4957628;28;20613;-80
2021/06/12 12:52:21;;;;;;;3.67;1.88;;;29.30;50.60;;;;;;4959172;28;20034;-79
2021/06/12 12:55:03;;;;;;;3.30;1.73;;;29.00;49.40;;;;;;4956003;28;20632;-80
2021/06/12 12:57:46;;;;;;;3.25;1.92;;;28.90;50.10;;;;;;4959913;28;20173;-79
2021/06/12 13:00:28;;;;;;;4.00;2.10;;;28.70;50.40;;;;;;4959948;29;20030;-79